Clarissa, Minnesota
Current Conditions -  °F | °C
As of 12:45 AM on Monday 24 Nov 2014 (Local Time) from K14Y Reporting Station
Overcast Overcast  
Wind Chill: 10°   Ceiling: 800
Heat Index: 23°   Visibility: 10mi
Dew Point: 19°   Wind: 15mph
Humidity: 86%   Direction: 310°NW
Pressure: 29.4"   Gusts: 26mph
Location:  46.13°N, 94.95°W
Report Text: K14Y 240645Z AUTO 31013G23KT 10SM OVC008 M05/M07 A2940 RMK AO2
Loading
Personal Weather Stations






























Interactive Weather Map New forecast layout! Learn more

10-Day Weather Forecast

Advertisements
Track Severe Weather on mobile